Saint Helena, California
Current Conditions -  °F | °C
As of 1:53 PM on Thursday 27 Nov 2014 (Local Time) from KSTS Reporting Station
Scattered Clouds Scattered Clouds  
Wind Chill: 68°   Ceiling: Unl
Heat Index: 68°   Visibility: 10mi
Dew Point: 48°   Wind: 5mph
Humidity: 49%   Direction: 160°SSE
Pressure: 30.07"   Gusts: NA
Location:  38.51°N, 122.47°W
Report Text: KSTS 272153Z 16004KT 10SM SCT250 20/09 A3007 RMK AO2 SLP177 T02000089
Loading
Personal Weather Stations






























Interactive Weather Map New forecast layout! Learn more

10-Day Weather Forecast

Advertisements
Track Severe Weather on mobile